CYSM

Fort Smith Airport

Fort Smith, Northwest Territories, Canada
TAF CYSM 162338Z 1700/1712 20007KT P6SM SCT050 BKN100 TEMPO 1700/1704 P6SM -SHRA VCTS SCT040CB BKN050 FM170400 VRB03KT P6SM SCT040 BKN080 TEMPO 1704/1707 P6SM -SHRA BKN040 OVC080 FM170700 23005KT P6SM FEW070 RMK NXT FCST BY 170600Z
Issued Valid From Valid To
Jul-16 @ 23:38 UTC
(36 minutes ago)
Jul-17 @ 00:00 UTC
(14 minutes ago)
Jul-17 @ 12:00 UTC
(in 12 hours)
Jul-17 @ 00:00 to Jul-17 @ 04:00
TAF CYSM 162338Z 1700/1712 20007KT P6SM SCT050 BKN100
Wind Visibility Clouds
200° at 7 knots Greater than 6 miles
  • Scattered at 5,000' AGL
  • Broken at 10,000' AGL
Temporary Jul-17 @ 00:00 to Jul-17 @ 04:00
TEMPO 1700/1704 P6SM -SHRA VCTS SCT040CB BKN050
Visibility Clouds Conditions
Greater than 6 miles
  • Scattered at 4,000' AGL
  • Broken at 5,000' AGL
  • Light Rain
  • Area Thunderstorm
From Jul-17 @ 04:00 to Jul-17 @ 07:00
FM170400 VRB03KT P6SM SCT040 BKN080
Wind Visibility Clouds
Variable at 3 knots Greater than 6 miles
  • Scattered at 4,000' AGL
  • Broken at 8,000' AGL
Temporary Jul-17 @ 04:00 to Jul-17 @ 07:00
TEMPO 1704/1707 P6SM -SHRA BKN040 OVC080
Visibility Clouds Conditions
Greater than 6 miles
  • Broken at 4,000' AGL
  • Overcast at 8,000' AGL
  • Light Rain
From Jul-17 @ 07:00 to Jul-17 @ 12:00
FM170700 23005KT P6SM FEW070 RMK NXT FCST BY 170600Z
Wind Visibility Clouds
230° at 5 knots Greater than 6 miles
  • Few at 7,000' AGL
TAF CYSM 162338Z 1700/1712 20007KT P6SM SCT050 BKN100 TEMPO 1700/1704 P6SM -SHRA VCTS SCT040CB BKN050 FM170400 VRB03KT P6SM SCT040 BKN080 TEMPO 1704/1707 P6SM -SHRA BKN040 OVC080 FM170700 23005KT P6SM FEW070 RMK NXT FCST BY 170600Z
Issued Jul-16 @ 23:38 UTC
(36 minutes ago)
Valid From Jul-17 @ 00:00 UTC
(14 minutes ago)
Valid To Jul-17 @ 12:00 UTC
(in 12 hours)
Jul-17 @ 00:00 - Jul-17 @ 04:00
Wind Visibility
200° at 7 knots Greater than 6 miles
Clouds
  • Scattered at 5,000' AGL
  • Broken at 10,000' AGL
Temporary Jul-17 @ 00:00 - Jul-17 @ 04:00
Clouds
  • Scattered at 4,000' AGL
  • Broken at 5,000' AGL
Conditions
  • Light Rain
  • Area Thunderstorm
From Jul-17 @ 04:00 - Jul-17 @ 07:00
Wind Visibility
Variable at 3 knots Greater than 6 miles
Clouds
  • Scattered at 4,000' AGL
  • Broken at 8,000' AGL
Temporary Jul-17 @ 04:00 - Jul-17 @ 07:00
Clouds
  • Broken at 4,000' AGL
  • Overcast at 8,000' AGL
Conditions
  • Light Rain
From Jul-17 @ 07:00 - Jul-17 @ 12:00
Wind Visibility
230° at 5 knots Greater than 6 miles
Clouds
  • Few at 7,000' AGL